Etusivu
METAR-TAF:

METAR-TAF

Lentoasemat :

Clarksville, Tennessee, Yhdysvallat

Leveyspiiri: 36-37-19N, Pituuspiiri: 087-24-54W, korkeus merenpinnasta: 168 m

Tämänhetkinen sää

Tämä raportti tehtiin 39 minuuttia sitten, kello 16.52 UTC
Tuuli 6 kn lännestä/lounaasta
Lämpötila 6°C
Kosteus 39%
Ilmanpaine 1032 hPa
Näkyvyys: 16.1 km
selkeää

METAR: KCKV 221652Z AUTO 24006KT 10SM CLR 06/M07 A3047 RMK AO2 SLP323 T00611072

Aika: 11:31 (17:31 UTC)

Sääennuste

Tämä raportti tehtiin 6 tuntia ja 11 minuuttia sitten, kello 11.20 UTC
Ennuste voimassa 22. päivästä klo 12 UTC - 23. päivään klo 12 UTC
Tuuli 6 kn etelästä/lounaasta
Näkyvyys: 10 km
Muutamia pilviä 25000 ft:n korkeudessa

TAF: KCKV 221120Z 2212/2312 21006KT P6SM FEW250

Säähavainnot ja -ennusteet yli 4000 lentoasemalta (METAR- ja TAF-raportit).

Käytössä olevat sääasemat on merkitty karttaan keltaisilla ja punaisilla pisteillä.

Aseta hiiri pisteen päälle nähdäksesi sääaseman nimen.

Klikkaa sitten nähdäksesi säähavainnot ja -ennusteet.

Kartan vaihtaminen: klikkaa mustalla rastilla varustettuja vihreitä pisteitä, niin voit zoomata sisään; viivalla varustettua vihreää pistettä, niin voit zoomata ulos tai vihreitä nuolia, niin pääset viereisille kartoille.


METAR-TAF: